createdAt,value
2019-02-17T00:02:01.782Z,78.64
2019-02-17T00:04:28.338Z,78.97
2019-02-17T00:06:54.895Z,78.16
2019-02-17T00:09:21.435Z,78.41
2019-02-17T00:11:48.049Z,78.93
2019-02-17T00:14:14.568Z,79.78
2019-02-17T00:16:41.134Z,80.67
2019-02-17T00:19:07.701Z,80.52
2019-02-17T00:21:34.257Z,80.50
2019-02-17T00:24:00.811Z,80.66
2019-02-17T00:26:27.637Z,80.74
2019-02-17T00:28:59.568Z,80.82
2019-02-17T00:31:22.663Z,80.96
2019-02-17T00:33:49.200Z,81.41
2019-02-17T00:36:15.768Z,80.99
2019-02-17T00:38:42.316Z,81.34
2019-02-17T00:41:08.885Z,81.09
2019-02-17T00:43:35.425Z,81.40
2019-02-17T00:46:01.980Z,82.30
2019-02-17T00:48:36.141Z,81.89
2019-02-17T00:51:05.146Z,81.24
2019-02-17T00:53:31.693Z,81.44
2019-02-17T00:55:58.245Z,81.65
2019-02-17T00:58:24.802Z,82.18
2019-02-17T01:00:51.388Z,82.25
2019-02-17T01:03:17.939Z,82.15
2019-02-17T01:05:44.480Z,82.69
2019-02-17T01:08:11.066Z,82.62
2019-02-17T01:10:37.619Z,82.61
2019-02-17T01:13:04.266Z,82.10
2019-02-17T01:15:30.812Z,82.12
2019-02-17T01:17:57.422Z,82.98
2019-02-17T01:20:23.971Z,82.75
2019-02-17T01:22:50.529Z,82.24
2019-02-17T01:25:17.463Z,81.85
2019-02-17T01:27:44.030Z,81.96
2019-02-17T01:30:12.339Z,82.22
2019-02-17T01:32:38.902Z,82.33
2019-02-17T01:35:05.444Z,82.90
2019-02-17T01:37:32.004Z,82.69
2019-02-17T01:39:58.575Z,82.68
2019-02-17T01:42:25.113Z,82.49
2019-02-17T01:44:51.672Z,83.63
2019-02-17T01:47:18.221Z,83.99
2019-02-17T01:49:44.773Z,83.97
2019-02-17T01:52:11.373Z,83.49
2019-02-17T01:54:37.908Z,83.44
2019-02-17T01:57:04.477Z,83.35
2019-02-17T01:59:31.110Z,84.02
2019-02-17T02:01:57.681Z,83.83
2019-02-17T02:04:24.249Z,84.56
2019-02-17T02:06:50.884Z,85.11
2019-02-17T02:09:17.450Z,84.83
2019-02-17T02:11:43.988Z,84.26
2019-02-17T02:14:10.551Z,83.63
2019-02-17T02:16:37.099Z,83.87
2019-02-17T02:19:03.681Z,84.09
2019-02-17T02:21:30.249Z,84.37
2019-02-17T02:23:56.820Z,84.14
2019-02-17T02:26:23.364Z,84.26
2019-02-17T02:28:49.949Z,84.52
2019-02-17T02:31:16.508Z,84.92
2019-02-17T02:33:43.071Z,85.10
2019-02-17T02:36:09.612Z,84.92
2019-02-17T02:38:36.194Z,85.12
2019-02-17T02:41:02.759Z,85.47
2019-02-17T02:43:29.436Z,86.67
2019-02-17T02:45:58.204Z,86.90
2019-02-17T02:48:24.764Z,86.43
2019-02-17T02:50:53.079Z,85.93
2019-02-17T02:53:19.765Z,86.35
2019-02-17T02:55:46.459Z,86.26
2019-02-17T02:58:13.037Z,85.79
2019-02-17T03:00:40.411Z,85.48
2019-02-17T03:03:06.966Z,85.33
2019-02-17T03:05:35.424Z,85.49
2019-02-17T03:08:01.992Z,86.51
2019-02-17T03:10:28.549Z,87.14
2019-02-17T03:12:55.125Z,87.17
2019-02-17T03:15:23.049Z,87.28
2019-02-17T03:17:50.967Z,86.90
2019-02-17T03:20:17.558Z,86.59
2019-02-17T03:22:44.250Z,86.34
2019-02-17T03:25:10.903Z,86.52
2019-02-17T03:27:37.440Z,86.88
2019-02-17T03:30:06.197Z,86.56
2019-02-17T03:32:32.985Z,86.27
2019-02-17T03:34:59.557Z,85.95
2019-02-17T03:37:26.112Z,85.92
2019-02-17T03:39:52.713Z,86.46
2019-02-17T03:42:19.241Z,86.53
2019-02-17T03:44:45.818Z,85.97
2019-02-17T03:47:12.368Z,85.95
2019-02-17T03:49:38.943Z,86.49
2019-02-17T03:52:05.522Z,87.24
2019-02-17T03:54:32.081Z,86.38
2019-02-17T03:56:58.623Z,86.30
2019-02-17T03:59:25.192Z,86.27
2019-02-17T04:01:51.731Z,86.56
2019-02-17T04:04:18.310Z,86.72
2019-02-17T04:06:44.954Z,86.76
2019-02-17T04:09:11.531Z,87.29
2019-02-17T04:11:38.081Z,87.24
2019-02-17T04:14:04.652Z,87.40
2019-02-17T04:16:31.212Z,87.01
2019-02-17T04:18:57.794Z,86.36
2019-02-17T04:21:24.349Z,86.46
2019-02-17T04:23:50.926Z,86.67
2019-02-17T04:26:17.471Z,86.68
2019-02-17T04:28:44.051Z,87.37
2019-02-17T04:31:10.641Z,87.12
2019-02-17T04:33:37.184Z,87.10
2019-02-17T04:36:03.780Z,87.66
2019-02-17T04:38:30.307Z,87.42
2019-02-17T04:40:56.868Z,87.50
2019-02-17T04:43:23.417Z,87.14
2019-02-17T04:45:49.991Z,87.02
2019-02-17T04:48:16.531Z,87.21
2019-02-17T04:50:43.103Z,88.22
2019-02-17T04:53:09.656Z,88.22
2019-02-17T04:55:36.230Z,87.58
2019-02-17T04:58:02.905Z,86.03
2019-02-17T05:00:39.497Z,85.62
2019-02-17T05:02:57.928Z,85.40
2019-02-17T05:05:24.521Z,85.93
2019-02-17T05:07:51.086Z,86.01
2019-02-17T05:10:17.649Z,86.22
2019-02-17T05:12:44.266Z,86.92
2019-02-17T05:15:10.844Z,86.84
2019-02-17T05:17:37.387Z,87.17
2019-02-17T05:20:04.195Z,87.64
2019-02-17T05:22:30.737Z,87.43
2019-02-17T05:24:57.308Z,87.68
2019-02-17T05:27:23.992Z,87.36
2019-02-17T05:29:50.530Z,87.14
2019-02-17T05:32:17.102Z,86.80
2019-02-17T05:34:43.647Z,87.38
2019-02-17T05:37:10.239Z,87.35
2019-02-17T05:39:36.785Z,88.12
2019-02-17T05:42:03.410Z,87.73
2019-02-17T05:44:29.989Z,87.45
2019-02-17T05:46:56.559Z,87.56
2019-02-17T05:49:23.106Z,88.31
2019-02-17T05:51:49.683Z,87.77
2019-02-17T05:54:16.227Z,88.42
2019-02-17T05:56:42.787Z,89.10
2019-02-17T05:59:09.343Z,88.39
2019-02-17T06:01:35.917Z,88.38
2019-02-17T06:04:02.511Z,88.25
2019-02-17T06:06:29.073Z,88.52
2019-02-17T06:08:55.636Z,88.69
2019-02-17T06:11:23.970Z,88.64
2019-02-17T06:13:50.517Z,89.12
2019-02-17T06:16:17.087Z,88.96
2019-02-17T06:18:43.644Z,88.57
2019-02-17T06:21:10.210Z,88.44
2019-02-17T06:23:36.775Z,88.38
2019-02-17T06:26:03.330Z,88.21
2019-02-17T06:28:29.891Z,88.19
2019-02-17T06:30:56.542Z,88.48
2019-02-17T06:33:23.147Z,88.88
2019-02-17T06:35:50.798Z,89.21
2019-02-17T06:38:17.379Z,88.62
2019-02-17T06:40:43.934Z,88.56
2019-02-17T06:43:10.505Z,88.85
2019-02-17T06:45:37.068Z,88.52
2019-02-17T06:48:03.650Z,88.81
2019-02-17T06:50:30.214Z,89.09
2019-02-17T06:52:56.780Z,89.04
2019-02-17T06:55:36.963Z,88.61
2019-02-17T06:58:03.526Z,88.44
2019-02-17T07:00:33.321Z,87.92
2019-02-17T07:02:59.896Z,86.03
2019-02-17T07:05:57.866Z,85.78
2019-02-17T07:08:24.449Z,85.76
2019-02-17T07:10:50.991Z,83.48
2019-02-17T07:13:17.569Z,83.64
2019-02-17T07:15:44.121Z,82.76
2019-02-17T07:18:10.721Z,84.64
2019-02-17T07:20:37.266Z,85.07
2019-02-17T07:23:03.832Z,82.87
2019-02-17T07:25:30.697Z,83.00
2019-02-17T07:27:57.351Z,79.39
2019-02-17T07:30:23.864Z,79.83
2019-02-17T07:32:50.441Z,79.55
2019-02-17T07:35:17.039Z,80.51
2019-02-17T07:37:43.586Z,81.35
2019-02-17T07:40:10.148Z,78.63
2019-02-17T07:42:36.726Z,77.65
2019-02-17T07:45:03.338Z,77.35
2019-02-17T07:47:29.907Z,77.17
2019-02-17T07:49:56.483Z,77.38
2019-02-17T07:52:23.033Z,77.80
2019-02-17T07:54:49.599Z,77.80
2019-02-17T07:57:16.138Z,78.22
2019-02-17T07:59:42.730Z,78.24
2019-02-17T08:02:09.279Z,77.88
2019-02-17T08:04:35.853Z,75.26
2019-02-17T08:07:02.407Z,75.26
2019-02-17T08:09:28.975Z,74.81
2019-02-17T08:11:55.522Z,72.58
2019-02-17T08:14:22.096Z,69.03
2019-02-17T08:16:48.640Z,69.17
2019-02-17T08:19:17.405Z,66.04
2019-02-17T08:21:43.945Z,67.44
2019-02-17T08:24:10.522Z,67.11
2019-02-17T08:26:37.311Z,66.39
2019-02-17T08:29:03.872Z,65.14
2019-02-17T08:31:30.421Z,64.03
2019-02-17T08:33:56.989Z,61.53
2019-02-17T08:36:23.577Z,57.76
2019-02-17T08:38:50.234Z,52.55
2019-02-17T08:41:16.788Z,49.46
2019-02-17T08:43:43.327Z,45.53
2019-02-17T08:46:09.918Z,42.69
2019-02-17T08:48:36.500Z,40.50
2019-02-17T08:51:03.070Z,38.32
2019-02-17T08:53:29.632Z,36.64
2019-02-17T08:55:56.177Z,36.08
2019-02-17T08:58:22.788Z,36.83
2019-02-17T09:00:49.303Z,36.11
2019-02-17T09:03:15.840Z,37.65
2019-02-17T09:05:44.371Z,38.47
2019-02-17T09:08:11.193Z,37.37
2019-02-17T09:10:37.790Z,35.85
2019-02-17T09:13:04.339Z,34.46
2019-02-17T09:15:30.920Z,32.60
2019-02-17T09:17:57.499Z,33.23
2019-02-17T09:20:24.474Z,31.59
2019-02-17T09:22:51.043Z,33.17
2019-02-17T09:25:17.621Z,32.75
2019-02-17T09:27:44.182Z,30.79
2019-02-17T09:30:12.689Z,31.44
2019-02-17T09:32:39.272Z,32.16
2019-02-17T09:35:06.153Z,30.24
2019-02-17T09:37:32.706Z,30.09
2019-02-17T09:39:59.268Z,30.93
2019-02-17T09:42:25.851Z,32.36
2019-02-17T09:44:52.439Z,32.01
2019-02-17T09:47:21.424Z,32.08
2019-02-17T09:49:48.008Z,33.71
2019-02-17T09:52:14.558Z,33.54
2019-02-17T09:54:41.156Z,33.90
2019-02-17T09:57:07.709Z,33.45
2019-02-17T09:59:34.268Z,32.45
2019-02-17T10:02:00.811Z,30.79
2019-02-17T10:04:27.361Z,32.01
2019-02-17T10:06:54.047Z,30.53
2019-02-17T10:09:20.603Z,30.91
2019-02-17T10:11:47.179Z,31.20
2019-02-17T10:14:13.740Z,29.79
2019-02-17T10:16:40.332Z,33.92
2019-02-17T10:19:06.942Z,32.57
2019-02-17T10:21:34.648Z,33.17
2019-02-17T10:24:01.234Z,37.41
2019-02-17T10:26:29.418Z,32.61
2019-02-17T10:28:55.979Z,28.58
2019-02-17T10:31:22.552Z,27.67
2019-02-17T10:33:49.086Z,28.67
2019-02-17T10:36:15.667Z,28.30
2019-02-17T10:38:42.548Z,27.24
2019-02-17T10:41:09.118Z,28.66
2019-02-17T10:43:35.653Z,28.65
2019-02-17T10:46:02.244Z,28.06
2019-02-17T10:48:28.807Z,29.65
2019-02-17T10:50:55.374Z,28.18
2019-02-17T10:53:21.937Z,28.88
2019-02-17T10:55:48.513Z,30.93
2019-02-17T10:58:15.058Z,30.63
2019-02-17T11:00:41.632Z,29.72
2019-02-17T11:03:08.767Z,31.42
2019-02-17T11:05:35.323Z,29.70
2019-02-17T11:08:01.895Z,33.59
2019-02-17T11:10:28.437Z,30.67
2019-02-17T11:12:54.998Z,29.37
2019-02-17T11:15:21.545Z,28.25
2019-02-17T11:17:48.111Z,27.23
2019-02-17T11:20:14.673Z,27.50
2019-02-17T11:22:41.239Z,26.06
2019-02-17T11:25:07.803Z,26.27
2019-02-17T11:27:34.382Z,27.63
2019-02-17T11:30:00.922Z,26.39
2019-02-17T11:32:27.489Z,25.49
2019-02-17T11:34:54.048Z,28.12
2019-02-17T11:37:20.613Z,26.89
2019-02-17T11:39:47.194Z,27.23
2019-02-17T11:42:13.736Z,26.80
2019-02-17T11:44:40.310Z,27.72
2019-02-17T11:47:07.506Z,27.90
2019-02-17T11:49:35.405Z,26.46
2019-02-17T11:52:01.973Z,27.83
2019-02-17T11:54:28.522Z,27.05
2019-02-17T11:56:55.098Z,26.10
2019-02-17T11:59:21.664Z,26.15
2019-02-17T12:01:48.242Z,26.23
2019-02-17T12:04:15.301Z,27.16
2019-02-17T12:06:41.870Z,28.24
2019-02-17T12:09:08.528Z,26.44
2019-02-17T12:11:35.435Z,25.60
2019-02-17T12:14:02.004Z,25.87
2019-02-17T12:16:36.774Z,24.07
2019-02-17T12:18:57.065Z,25.85
2019-02-17T12:21:58.308Z,26.72
2019-02-17T12:24:35.073Z,27.04
2019-02-17T12:27:27.097Z,26.80
2019-02-17T12:30:08.962Z,28.54
2019-02-17T12:32:35.529Z,27.41
2019-02-17T12:35:04.162Z,29.01
2019-02-17T12:37:30.700Z,29.07
2019-02-17T12:39:57.260Z,25.81
2019-02-17T12:42:23.824Z,26.32
2019-02-17T12:44:50.364Z,27.74
2019-02-17T12:47:19.259Z,26.25
2019-02-17T12:49:45.762Z,27.78
2019-02-17T12:52:12.332Z,27.72
2019-02-17T12:54:39.173Z,25.92
2019-02-17T12:57:05.734Z,26.98
2019-02-17T12:59:32.272Z,25.71
2019-02-17T13:01:58.811Z,24.82
2019-02-17T13:04:25.378Z,24.62
2019-02-17T13:06:51.926Z,23.68
2019-02-17T13:09:18.509Z,24.10
2019-02-17T13:11:45.048Z,26.46
2019-02-17T13:14:11.598Z,27.93
2019-02-17T13:16:38.671Z,26.67
2019-02-17T13:19:05.241Z,25.00
2019-02-17T13:21:31.798Z,25.32
2019-02-17T13:23:58.376Z,25.72
2019-02-17T13:26:24.919Z,26.53
2019-02-17T13:28:51.486Z,27.42
2019-02-17T13:31:18.020Z,27.65
2019-02-17T13:33:44.580Z,28.39
2019-02-17T13:36:11.130Z,27.80
2019-02-17T13:38:38.003Z,27.51
2019-02-17T13:41:04.529Z,28.15
2019-02-17T13:43:31.084Z,27.75
2019-02-17T13:45:59.927Z,27.46
2019-02-17T13:48:28.898Z,28.86
2019-02-17T13:50:55.460Z,29.49
2019-02-17T13:53:22.034Z,28.39
2019-02-17T13:55:48.573Z,28.75
2019-02-17T13:58:15.147Z,29.25
2019-02-17T14:00:41.708Z,29.09
2019-02-17T14:03:08.291Z,28.36
2019-02-17T14:05:34.815Z,28.74
2019-02-17T14:08:01.361Z,28.18
2019-02-17T14:10:27.928Z,27.66
2019-02-17T14:12:54.606Z,28.37
2019-02-17T14:15:21.129Z,28.21
2019-02-17T14:17:47.976Z,27.66
2019-02-17T14:20:14.634Z,28.79
2019-02-17T14:22:41.577Z,29.20
2019-02-17T14:25:08.158Z,28.57
2019-02-17T14:27:34.716Z,28.91
2019-02-17T14:30:01.291Z,29.55
2019-02-17T14:32:27.866Z,30.23
2019-02-17T14:34:54.432Z,29.99
2019-02-17T14:37:20.974Z,29.62
2019-02-17T14:39:47.540Z,29.10
2019-02-17T14:42:14.107Z,29.12
2019-02-17T14:44:40.686Z,29.51
2019-02-17T14:47:07.550Z,29.22
2019-02-17T14:49:34.123Z,29.76
2019-02-17T14:52:00.669Z,29.72
2019-02-17T14:54:27.237Z,29.41
2019-02-17T14:56:53.786Z,28.69
2019-02-17T14:59:20.374Z,28.90
2019-02-17T15:01:47.018Z,29.29
2019-02-17T15:04:13.602Z,29.12
2019-02-17T15:06:40.186Z,30.00
2019-02-17T15:09:06.772Z,29.95
2019-02-17T15:11:33.324Z,29.31
2019-02-17T15:13:59.889Z,29.37
2019-02-17T15:16:26.519Z,30.02
2019-02-17T15:18:53.094Z,30.39
2019-02-17T15:21:20.002Z,30.87
2019-02-17T15:23:46.580Z,31.12
2019-02-17T15:26:13.978Z,31.97
2019-02-17T15:28:40.516Z,31.99
2019-02-17T15:31:07.086Z,32.62
2019-02-17T15:33:33.624Z,33.41
2019-02-17T15:36:00.166Z,32.41
2019-02-17T15:38:26.724Z,33.68
2019-02-17T15:40:53.319Z,33.61
2019-02-17T15:43:19.859Z,34.23
2019-02-17T15:45:46.422Z,34.08
2019-02-17T15:48:12.962Z,34.01
2019-02-17T15:50:39.512Z,35.16
2019-02-17T15:53:06.037Z,34.66
2019-02-17T15:55:32.615Z,35.11
2019-02-17T15:57:59.183Z,35.18
2019-02-17T16:00:25.760Z,35.75
2019-02-17T16:02:52.303Z,35.73
2019-02-17T16:05:18.889Z,36.25
2019-02-17T16:07:45.435Z,36.93
2019-02-17T16:10:12.065Z,37.37
2019-02-17T16:12:38.594Z,37.34
2019-02-17T16:15:07.808Z,37.87
2019-02-17T16:17:34.688Z,37.83
2019-02-17T16:20:03.757Z,38.39
2019-02-17T16:22:30.335Z,38.61
2019-02-17T16:24:56.884Z,38.88
2019-02-17T16:27:23.438Z,39.20
2019-02-17T16:29:50.033Z,39.21
2019-02-17T16:32:16.586Z,39.57
2019-02-17T16:34:43.160Z,40.40
2019-02-17T16:37:09.720Z,41.23
2019-02-17T16:39:36.287Z,41.38
2019-02-17T16:42:02.877Z,41.41
2019-02-17T16:44:29.421Z,42.05
2019-02-17T16:46:55.996Z,41.31
2019-02-17T16:49:22.709Z,41.68
2019-02-17T16:51:49.254Z,42.06
2019-02-17T16:54:15.801Z,41.75
2019-02-17T16:56:42.378Z,41.87
2019-02-17T16:59:08.953Z,42.79
2019-02-17T17:01:35.505Z,43.11
2019-02-17T17:04:02.071Z,44.25
2019-02-17T17:06:28.653Z,44.53
2019-02-17T17:08:55.203Z,44.24
2019-02-17T17:11:21.774Z,44.89
2019-02-17T17:13:48.323Z,44.68
2019-02-17T17:16:14.889Z,44.83
2019-02-17T17:18:41.471Z,45.69
2019-02-17T17:21:08.129Z,45.86
2019-02-17T17:23:34.665Z,46.13
2019-02-17T17:26:01.254Z,46.69
2019-02-17T17:28:27.787Z,46.51
2019-02-17T17:30:54.376Z,47.12
2019-02-17T17:33:20.941Z,45.84
2019-02-17T17:35:47.541Z,46.98
2019-02-17T17:38:14.080Z,46.29
2019-02-17T17:40:40.696Z,46.79
2019-02-17T17:43:07.191Z,47.44
2019-02-17T17:45:34.362Z,47.29
2019-02-17T17:48:00.931Z,48.00
2019-02-17T17:50:27.477Z,46.94
2019-02-17T17:52:54.039Z,47.55
2019-02-17T17:55:20.608Z,47.26
2019-02-17T17:57:47.158Z,46.12
2019-02-17T18:00:16.148Z,45.27
2019-02-17T18:02:42.716Z,44.22
2019-02-17T18:05:09.787Z,43.65
2019-02-17T18:07:36.362Z,43.41
2019-02-17T18:10:03.236Z,44.04
2019-02-17T18:12:29.802Z,43.30
2019-02-17T18:14:56.352Z,43.66
2019-02-17T18:17:22.915Z,43.00
2019-02-17T18:19:49.497Z,43.20
2019-02-17T18:22:16.049Z,43.75
2019-02-17T18:24:42.693Z,44.39
2019-02-17T18:27:09.254Z,43.95
2019-02-17T18:29:36.045Z,44.34
2019-02-17T18:32:02.623Z,44.10
2019-02-17T18:34:29.171Z,44.08
2019-02-17T18:36:55.730Z,44.87
2019-02-17T18:39:22.648Z,43.97
2019-02-17T18:41:49.235Z,44.18
2019-02-17T18:44:15.777Z,43.80
2019-02-17T18:46:42.347Z,44.11
2019-02-17T18:49:08.896Z,44.14
2019-02-17T18:51:35.501Z,44.26
2019-02-17T18:54:02.079Z,44.12
2019-02-17T18:56:28.642Z,43.37
2019-02-17T18:58:55.224Z,43.73
2019-02-17T19:01:21.762Z,44.20
2019-02-17T19:03:48.323Z,43.93
2019-02-17T19:06:15.938Z,44.46
2019-02-17T19:08:42.476Z,44.46
2019-02-17T19:11:09.053Z,43.98
2019-02-17T19:13:35.591Z,43.87
2019-02-17T19:16:02.149Z,44.08
2019-02-17T19:18:28.746Z,43.95
2019-02-17T19:20:55.311Z,43.98
2019-02-17T19:23:21.846Z,44.09
2019-02-17T19:25:48.430Z,43.81
2019-02-17T19:28:14.981Z,44.52
2019-02-17T19:30:41.575Z,44.45
2019-02-17T19:33:08.143Z,44.21
2019-02-17T19:35:41.463Z,44.21
2019-02-17T19:38:03.127Z,44.42
2019-02-17T19:40:29.664Z,44.75
2019-02-17T19:42:56.250Z,45.73
2019-02-17T19:45:22.803Z,45.75
2019-02-17T19:47:49.362Z,45.35
2019-02-17T19:50:15.929Z,45.36
2019-02-17T19:52:42.528Z,45.74
2019-02-17T19:55:09.131Z,46.76
2019-02-17T19:57:35.691Z,46.87
2019-02-17T20:00:02.268Z,47.33
2019-02-17T20:02:53.735Z,46.96
2019-02-17T20:05:24.498Z,46.51
2019-02-17T20:07:52.793Z,46.50
2019-02-17T20:10:19.116Z,46.66
2019-02-17T20:12:45.698Z,46.05
2019-02-17T20:15:12.224Z,46.25
2019-02-17T20:17:38.864Z,45.96
2019-02-17T20:20:05.418Z,45.86
2019-02-17T20:22:31.949Z,46.79
2019-02-17T20:24:58.531Z,48.20
2019-02-17T20:27:25.058Z,48.64
2019-02-17T20:29:51.630Z,49.60
2019-02-17T20:32:18.170Z,49.58
2019-02-17T20:34:44.719Z,50.00
2019-02-17T20:37:11.258Z,50.78
2019-02-17T20:39:37.813Z,51.89
2019-02-17T20:42:04.373Z,52.21
2019-02-17T20:44:30.932Z,53.17
2019-02-17T20:46:57.480Z,53.46
2019-02-17T20:49:24.052Z,53.42
2019-02-17T20:51:50.592Z,53.53
2019-02-17T20:54:17.161Z,53.61
2019-02-17T20:56:43.727Z,53.79
2019-02-17T20:59:10.279Z,53.70
2019-02-17T21:01:36.819Z,54.00
2019-02-17T21:04:03.393Z,53.80
2019-02-17T21:06:29.925Z,54.03
2019-02-17T21:08:56.642Z,54.28
2019-02-17T21:11:23.185Z,54.71
2019-02-17T21:13:49.745Z,55.42
2019-02-17T21:16:16.284Z,55.40
2019-02-17T21:18:42.853Z,55.50
2019-02-17T21:21:09.397Z,55.28
2019-02-17T21:23:35.965Z,55.98
2019-02-17T21:26:02.497Z,55.90
2019-02-17T21:28:29.095Z,55.86
2019-02-17T21:30:55.629Z,56.34
2019-02-17T21:33:22.188Z,55.07
2019-02-17T21:35:48.753Z,55.50
2019-02-17T21:38:15.323Z,55.49
2019-02-17T21:40:41.867Z,55.90
2019-02-17T21:43:08.399Z,55.61
2019-02-17T21:45:34.959Z,55.18
2019-02-17T21:48:01.500Z,55.96
2019-02-17T21:50:28.053Z,56.33
2019-02-17T21:52:54.585Z,56.24
2019-02-17T21:55:21.134Z,56.86
2019-02-17T21:57:47.671Z,57.25
2019-02-17T22:00:16.093Z,57.06
2019-02-17T22:02:42.656Z,56.39
2019-02-17T22:05:11.278Z,56.74
2019-02-17T22:07:37.816Z,56.81
2019-02-17T22:10:05.098Z,57.11
2019-02-17T22:12:31.640Z,57.61
2019-02-17T22:14:58.219Z,57.96
2019-02-17T22:17:24.767Z,58.52
2019-02-17T22:19:51.329Z,58.58
2019-02-17T22:22:18.097Z,59.28
2019-02-17T22:24:44.663Z,59.08
2019-02-17T22:27:11.193Z,59.40
2019-02-17T22:29:37.755Z,59.67
2019-02-17T22:32:04.297Z,59.95
2019-02-17T22:34:30.865Z,60.61
2019-02-17T22:36:57.500Z,61.27
2019-02-17T22:39:24.070Z,60.88
2019-02-17T22:41:50.612Z,60.95
2019-02-17T22:44:17.174Z,61.24
2019-02-17T22:46:43.744Z,61.29
2019-02-17T22:49:10.306Z,61.28
2019-02-17T22:51:36.856Z,61.28
2019-02-17T22:54:03.410Z,61.21
2019-02-17T22:56:29.963Z,60.97
2019-02-17T22:58:56.529Z,61.03
2019-02-17T23:01:25.457Z,61.39
2019-02-17T23:03:52.006Z,61.43
2019-02-17T23:06:18.582Z,60.73
2019-02-17T23:08:45.138Z,61.26
2019-02-17T23:11:11.704Z,61.93
2019-02-17T23:13:38.250Z,61.79
2019-02-17T23:16:04.815Z,61.03
2019-02-17T23:18:31.360Z,61.26
2019-02-17T23:20:57.948Z,61.96
2019-02-17T23:23:24.495Z,62.06
2019-02-17T23:25:51.042Z,62.22
2019-02-17T23:28:17.630Z,61.79
2019-02-17T23:30:44.198Z,61.63
2019-02-17T23:33:10.754Z,61.94
2019-02-17T23:35:37.339Z,61.41
2019-02-17T23:38:03.884Z,61.41
2019-02-17T23:40:30.456Z,62.11
2019-02-17T23:42:59.059Z,62.38
2019-02-17T23:45:25.631Z,62.16
2019-02-17T23:47:52.172Z,62.16
2019-02-17T23:50:18.737Z,61.59
2019-02-17T23:52:45.286Z,61.59
2019-02-17T23:55:11.858Z,61.59
2019-02-17T23:57:38.410Z,61.62
